Time;durP1;ratioP1;P1;durP2;ratioP2;P2;SDS_P1;SDS_P2;PMS_P1;PMS_P2;Temp;Humidity;BMP_temperature;BMP_pressure;BME280_temperature;BME280_humidity;BME280_pressure;Samples;Min_cycle;Max_cycle;Signal;HPM_P1;HPM_P2
2023/10/16 00:00:45;;;;;;;3.95;1.58;;;7.20;1.00;;;;;;5086772;27;20715;-70
2023/10/16 00:03:14;;;;;;;3.53;1.40;;;7.30;1.00;;;;;;5083617;27;20327;-71
2023/10/16 00:05:45;;;;;;;3.42;1.42;;;7.20;1.00;;;;;;5063680;28;20242;-71
2023/10/16 00:08:16;;;;;;;4.20;1.50;;;7.20;1.00;;;;;;5076896;28;20250;-71
2023/10/16 00:10:43;;;;;;;4.60;1.58;;;7.20;1.00;;;;;;5086807;27;20230;-70
2023/10/16 00:13:11;;;;;;;3.00;1.50;;;7.20;1.00;;;;;;5059358;28;20329;-71
2023/10/16 00:15:44;;;;;;;3.05;1.42;;;7.20;1.00;;;;;;5094827;27;21117;-69
2023/10/16 00:18:18;;;;;;;3.15;1.70;;;7.10;1.00;;;;;;5087040;27;20231;-69
2023/10/16 00:20:45;;;;;;;4.57;1.90;;;7.10;1.00;;;;;;5085745;27;20338;-71
2023/10/16 00:23:14;;;;;;;3.10;1.75;;;7.10;1.00;;;;;;5090058;27;20339;-71
2023/10/16 00:25:41;;;;;;;2.05;1.42;;;7.10;1.00;;;;;;5087230;27;20356;-74
2023/10/16 00:28:08;;;;;;;4.60;1.55;;;7.10;1.00;;;;;;5089382;27;20280;-71
2023/10/16 00:30:35;;;;;;;3.28;1.50;;;7.10;1.00;;;;;;5084367;27;20268;-71
2023/10/16 00:33:04;;;;;;;5.53;1.60;;;7.00;1.00;;;;;;5090285;27;20237;-71
2023/10/16 00:35:32;;;;;;;3.95;1.40;;;7.10;1.00;;;;;;5089414;27;20252;-71
2023/10/16 00:38:02;;;;;;;3.20;1.38;;;7.10;1.00;;;;;;5088037;27;20339;-70
2023/10/16 00:40:35;;;;;;;3.70;1.48;;;7.00;1.00;;;;;;5076794;27;20350;-70
2023/10/16 00:43:10;;;;;;;6.82;1.50;;;7.00;1.00;;;;;;5089056;27;20234;-70
2023/10/16 00:45:46;;;;;;;4.72;1.67;;;7.00;1.00;;;;;;5085373;27;20300;-70
2023/10/16 00:48:15;;;;;;;5.63;1.52;;;6.90;1.00;;;;;;5084859;28;20234;-70
2023/10/16 00:50:42;;;;;;;4.47;1.65;;;7.00;1.00;;;;;;5082369;28;20272;-70
2023/10/16 00:53:10;;;;;;;3.47;1.50;;;6.90;1.00;;;;;;5084108;27;20724;-72
2023/10/16 00:55:38;;;;;;;4.80;1.60;;;6.90;1.00;;;;;;5087438;27;20278;-72
2023/10/16 00:58:06;;;;;;;3.30;1.80;;;6.90;1.00;;;;;;5086552;28;20782;-72
2023/10/16 01:00:35;;;;;;;4.63;2.05;;;6.90;1.00;;;;;;5086056;27;20238;-71
2023/10/16 01:03:04;;;;;;;6.13;1.75;;;6.90;1.00;;;;;;5087307;28;20585;-72
2023/10/16 01:05:33;;;;;;;4.20;1.60;;;6.90;1.00;;;;;;5083851;27;20289;-71
2023/10/16 01:08:02;;;;;;;3.28;1.75;;;6.90;1.00;;;;;;5070671;28;20243;-73
2023/10/16 01:10:32;;;;;;;3.75;1.58;;;6.90;1.00;;;;;;5073723;28;20238;-74
2023/10/16 01:13:01;;;;;;;3.58;1.40;;;6.80;1.00;;;;;;5088626;28;20229;-73
2023/10/16 01:15:28;;;;;;;6.25;1.40;;;6.90;1.00;;;;;;5086484;27;20242;-73
2023/10/16 01:17:55;;;;;;;2.00;1.15;;;6.90;1.00;;;;;;5080320;27;20328;-72
2023/10/16 01:20:22;;;;;;;3.42;1.10;;;6.80;1.00;;;;;;5086527;27;20257;-72
2023/10/16 01:22:49;;;;;;;3.72;1.33;;;6.80;1.00;;;;;;5076816;28;20316;-79
2023/10/16 01:25:17;;;;;;;4.70;1.85;;;6.80;1.00;;;;;;5073584;28;20295;-74
2023/10/16 01:27:44;;;;;;;3.72;1.50;;;6.80;1.00;;;;;;5094788;27;21915;-73
2023/10/16 01:30:17;;;;;;;3.20;1.20;;;6.80;1.00;;;;;;5086329;28;20751;-73
2023/10/16 01:32:43;;;;;;;3.22;1.50;;;6.80;1.00;;;;;;5088417;28;20295;-70
2023/10/16 01:35:10;;;;;;;3.67;1.52;;;6.80;1.00;;;;;;5088305;28;20815;-72
2023/10/16 01:37:41;;;;;;;4.35;1.80;;;6.80;1.00;;;;;;5080583;27;20238;-71
2023/10/16 01:40:23;;;;;;;3.67;1.48;;;6.80;1.00;;;;;;5088755;27;20292;-75
2023/10/16 01:42:53;;;;;;;4.40;1.48;;;6.80;1.00;;;;;;5088391;28;20242;-72
2023/10/16 01:45:20;;;;;;;3.92;1.70;;;6.80;1.00;;;;;;5087443;28;20251;-73
2023/10/16 01:47:47;;;;;;;2.67;1.45;;;6.80;1.00;;;;;;5089784;28;20244;-72
2023/10/16 01:50:21;;;;;;;5.90;1.85;;;6.80;1.00;;;;;;5086535;27;20320;-72
2023/10/16 01:52:48;;;;;;;4.65;1.45;;;6.80;1.00;;;;;;5085836;28;20717;-74
2023/10/16 01:55:17;;;;;;;5.35;1.55;;;6.80;1.00;;;;;;5087536;28;20266;-73
2023/10/16 01:57:47;;;;;;;6.57;2.05;;;6.80;1.00;;;;;;5088529;28;20585;-73
2023/10/16 02:00:24;;;;;;;4.38;1.63;;;6.70;1.00;;;;;;5088476;27;20244;-72
2023/10/16 02:02:51;;;;;;;2.80;1.40;;;6.70;1.00;;;;;;5084129;27;20233;-73
2023/10/16 02:05:18;;;;;;;2.65;1.80;;;6.80;1.00;;;;;;5086747;27;20234;-73
2023/10/16 02:07:45;;;;;;;3.25;1.63;;;6.70;1.00;;;;;;5090167;27;20243;-72
2023/10/16 02:10:13;;;;;;;4.10;1.50;;;6.70;1.00;;;;;;5079805;27;20616;-73
2023/10/16 02:12:40;;;;;;;2.28;1.33;;;6.70;1.00;;;;;;5078389;28;20263;-73
2023/10/16 02:15:09;;;;;;;2.95;1.27;;;6.70;1.00;;;;;;5092174;28;20310;-73
2023/10/16 02:17:39;;;;;;;2.83;1.83;;;6.70;1.00;;;;;;5088410;27;20720;-72
2023/10/16 02:20:11;;;;;;;3.50;1.52;;;6.70;1.00;;;;;;5087373;28;20232;-71
2023/10/16 02:22:40;;;;;;;5.07;1.70;;;6.60;1.00;;;;;;5082797;27;20241;-73
2023/10/16 02:25:10;;;;;;;4.63;1.42;;;6.60;1.00;;;;;;5062964;28;20238;-72
2023/10/16 02:27:37;;;;;;;4.55;1.40;;;6.60;1.00;;;;;;5067088;28;20241;-75
2023/10/16 02:30:28;;;;;;;4.05;1.45;;;6.60;1.00;;;;;;5073459;27;20793;-72
2023/10/16 02:33:12;;;;;;;3.17;1.80;;;6.70;1.00;;;;;;5065279;28;20325;-72
2023/10/16 02:35:42;;;;;;;2.88;1.60;;;6.60;1.00;;;;;;5085708;27;20238;-70
2023/10/16 02:38:12;;;;;;;5.13;2.60;;;6.60;1.00;;;;;;5071561;27;20250;-72
2023/10/16 02:40:41;;;;;;;4.32;1.52;;;6.60;1.00;;;;;;5066823;27;20244;-76
2023/10/16 02:43:13;;;;;;;5.20;1.75;;;6.60;1.00;;;;;;5087646;27;20632;-74
2023/10/16 02:45:42;;;;;;;6.07;1.60;;;6.50;1.00;;;;;;5083675;27;20246;-75
2023/10/16 02:48:10;;;;;;;6.10;1.70;;;6.50;1.00;;;;;;5085901;27;20351;-73
2023/10/16 02:50:41;;;;;;;6.50;2.00;;;6.50;1.00;;;;;;5066365;27;20377;-71
2023/10/16 02:53:08;;;;;;;4.05;1.80;;;6.50;1.00;;;;;;5075445;27;20239;-72
2023/10/16 02:55:35;;;;;;;2.53;1.33;;;6.50;1.00;;;;;;5091975;27;20244;-71
2023/10/16 02:58:04;;;;;;;5.35;1.90;;;6.50;1.00;;;;;;5087175;27;20258;-71
2023/10/16 03:00:37;;;;;;;2.70;1.40;;;6.40;1.00;;;;;;5085886;28;20233;-73
2023/10/16 03:03:06;;;;;;;5.00;2.60;;;6.50;1.00;;;;;;5090290;28;20315;-71
2023/10/16 03:05:34;;;;;;;2.35;1.27;;;6.50;1.00;;;;;;5085184;27;20243;-72
2023/10/16 03:08:02;;;;;;;3.97;1.40;;;6.50;1.00;;;;;;5088607;27;20245;-72
2023/10/16 03:10:30;;;;;;;3.53;1.80;;;6.50;1.00;;;;;;5084582;27;20268;-71
2023/10/16 03:13:03;;;;;;;3.08;1.55;;;6.50;1.00;;;;;;5088589;27;20233;-72
2023/10/16 03:15:30;;;;;;;5.00;1.85;;;6.40;1.00;;;;;;5086109;28;21058;-73
2023/10/16 03:17:57;;;;;;;3.20;1.35;;;6.50;1.00;;;;;;5086756;28;20333;-71
2023/10/16 03:20:35;;;;;;;2.58;1.63;;;6.50;1.00;;;;;;5090331;27;20385;-72
2023/10/16 03:23:06;;;;;;;5.68;2.03;;;6.40;1.00;;;;;;5086405;27;20326;-72
2023/10/16 03:28:14;;;;;;;3.17;1.55;;;6.40;1.00;;;;;;5086589;27;20983;-71
2023/10/16 03:30:42;;;;;;;4.03;1.70;;;6.40;1.00;;;;;;5086569;27;20249;-71
2023/10/16 03:33:13;;;;;;;3.80;1.75;;;6.40;1.00;;;;;;5079697;28;20235;-71
2023/10/16 03:35:52;;;;;;;4.13;1.85;;;6.40;1.00;;;;;;5091309;27;20294;-70
2023/10/16 03:38:26;;;;;;;4.03;2.05;;;6.40;1.00;;;;;;5091588;28;20237;-72
2023/10/16 03:40:55;;;;;;;1.40;1.23;;;6.40;1.00;;;;;;5092359;27;20238;-71
2023/10/16 03:43:23;;;;;;;4.43;1.63;;;6.40;1.00;;;;;;5090547;27;20316;-70
2023/10/16 03:45:50;;;;;;;4.75;1.90;;;6.30;1.00;;;;;;5086755;27;21676;-72
2023/10/16 03:48:19;;;;;;;1.85;1.25;;;6.40;1.00;;;;;;5078748;28;20246;-74
2023/10/16 03:50:47;;;;;;;5.90;3.22;;;6.40;1.00;;;;;;5068658;27;21064;-71
2023/10/16 03:53:15;;;;;;;3.10;1.40;;;6.30;1.00;;;;;;5089969;27;20244;-77
2023/10/16 03:55:48;;;;;;;6.50;4.28;;;6.40;1.00;;;;;;5070088;28;20313;-69
2023/10/16 03:58:19;;;;;;;2.55;1.38;;;6.40;1.00;;;;;;5077092;28;20249;-71
2023/10/16 04:00:56;;;;;;;3.85;1.88;;;6.30;1.00;;;;;;5070355;28;21107;-74
2023/10/16 04:03:26;;;;;;;3.50;1.67;;;6.30;1.00;;;;;;5085864;27;20257;-71
2023/10/16 04:05:54;;;;;;;5.90;1.85;;;6.30;1.00;;;;;;5073852;27;20262;-74
2023/10/16 04:08:23;;;;;;;5.60;1.85;;;6.30;1.00;;;;;;5090629;27;20693;-70
2023/10/16 04:10:54;;;;;;;2.72;1.58;;;6.30;1.00;;;;;;5090951;27;20363;-70
2023/10/16 04:13:26;;;;;;;4.47;2.47;;;6.30;1.00;;;;;;5092351;27;20239;-70
2023/10/16 04:16:13;;;;;;;5.03;1.90;;;6.30;1.00;;;;;;5096455;27;20241;-70
2023/10/16 04:18:41;;;;;;;7.32;2.10;;;6.30;1.00;;;;;;5081129;28;21120;-71
2023/10/16 04:23:53;;;;;;;7.18;1.80;;;6.30;1.00;;;;;;5084326;27;20717;-69
2023/10/16 04:32:07;;;;;;;8.20;2.15;;;6.30;1.00;;;;;;5077311;27;20323;-71
2023/10/16 04:34:34;;;;;;;3.22;1.70;;;6.20;1.00;;;;;;5067998;27;20331;-76
2023/10/16 04:45:28;;;;;;;6.03;1.85;;;6.20;1.00;;;;;;5068184;27;20253;-72
2023/10/16 04:48:06;;;;;;;5.35;3.00;;;6.20;1.00;;;;;;5079031;28;20720;-73
2023/10/16 04:50:40;;;;;;;3.35;1.85;;;6.20;1.00;;;;;;5071296;28;20334;-71
2023/10/16 04:53:07;;;;;;;2.00;1.70;;;6.10;1.00;;;;;;5085624;27;20243;-73
2023/10/16 04:58:39;;;;;;;3.95;2.30;;;6.10;1.00;;;;;;5077820;28;20362;-74
2023/10/16 05:06:48;;;;;;;6.22;2.67;;;6.10;1.00;;;;;;5063422;28;20234;-73
2023/10/16 05:20:52;;;;;;;3.75;2.38;;;6.10;1.00;;;;;;5076326;27;20294;-74
2023/10/16 06:15:50;;;;;;;13.32;5.03;;;6.30;1.00;;;;;;5082569;27;20233;-77
2023/10/16 06:18:17;;;;;;;5.60;2.25;;;6.30;1.00;;;;;;5090739;28;20334;-77
2023/10/16 06:20:45;;;;;;;5.55;2.63;;;6.30;1.00;;;;;;5068713;27;20233;-78
2023/10/16 06:23:12;;;;;;;10.00;2.53;;;6.40;1.00;;;;;;5067769;28;20243;-72
2023/10/16 06:25:39;;;;;;;4.80;2.15;;;6.40;1.00;;;;;;5069880;28;20246;-73
2023/10/16 06:28:11;;;;;;;5.60;2.40;;;6.40;1.00;;;;;;5078013;28;20823;-75
2023/10/16 06:30:38;;;;;;;3.85;2.00;;;6.50;1.00;;;;;;5086153;27;20240;-77
2023/10/16 06:33:06;;;;;;;4.97;2.15;;;6.50;1.00;;;;;;5075172;28;20242;-75
2023/10/16 06:35:33;;;;;;;6.07;1.95;;;6.50;1.00;;;;;;5082088;27;20332;-75
2023/10/16 06:38:10;;;;;;;4.28;2.38;;;6.50;1.00;;;;;;5072486;27;22214;-74
2023/10/16 06:40:40;;;;;;;5.50;2.72;;;6.50;1.00;;;;;;5062855;28;20308;-75
2023/10/16 06:43:10;;;;;;;8.43;2.28;;;6.60;1.00;;;;;;5073091;28;20634;-74
2023/10/16 06:45:42;;;;;;;4.10;2.08;;;6.70;1.00;;;;;;5086616;28;22193;-75
2023/10/16 06:48:14;;;;;;;11.23;3.20;;;6.80;1.00;;;;;;5090289;27;20717;-76
2023/10/16 06:50:45;;;;;;;4.63;2.67;;;7.00;1.00;;;;;;5085096;27;20245;-78
2023/10/16 06:53:13;;;;;;;4.35;2.75;;;7.00;1.00;;;;;;5075177;28;20234;-75
2023/10/16 06:55:40;;;;;;;5.40;2.05;;;7.10;1.00;;;;;;5062256;28;20340;-74
2023/10/16 06:58:07;;;;;;;4.60;2.30;;;7.20;1.00;;;;;;5077097;28;20284;-73
2023/10/16 07:00:38;;;;;;;10.10;2.80;;;7.20;1.00;;;;;;5084781;27;20312;-75
2023/10/16 07:03:09;;;;;;;2.72;2.08;;;7.30;1.00;;;;;;5071998;28;20688;-75
2023/10/16 07:05:48;;;;;;;7.65;3.30;;;7.30;1.00;;;;;;5077773;27;20247;-74
2023/10/16 07:08:18;;;;;;;5.70;2.08;;;7.40;1.00;;;;;;5085911;28;20247;-75
2023/10/16 07:10:49;;;;;;;6.47;2.72;;;7.50;1.00;;;;;;5083123;28;20309;-74
2023/10/16 07:13:26;;;;;;;6.22;2.30;;;7.50;1.00;;;;;;5076269;27;20242;-76
2023/10/16 07:15:57;;;;;;;3.87;2.30;;;7.60;1.00;;;;;;5087145;27;20259;-74
2023/10/16 07:18:25;;;;;;;3.75;2.35;;;7.60;1.00;;;;;;5086505;28;20505;-74
2023/10/16 07:23:46;;;;;;;3.83;2.20;;;7.70;1.00;;;;;;5135104;27;21038;-73
2023/10/16 07:26:16;;;;;;;5.97;2.50;;;7.70;1.00;;;;;;5121787;27;20484;-73
2023/10/16 07:28:48;;;;;;;6.68;2.50;;;7.80;1.00;;;;;;5125384;27;20243;-74
2023/10/16 07:31:16;;;;;;;3.17;2.00;;;7.70;1.00;;;;;;5119603;27;21509;-74
2023/10/16 07:33:50;;;;;;;3.40;2.40;;;7.70;1.00;;;;;;5118304;27;20995;-76
2023/10/16 07:36:18;;;;;;;4.80;2.40;;;7.70;1.00;;;;;;5118987;27;20323;-73
2023/10/16 07:38:48;;;;;;;6.20;2.80;;;7.80;1.00;;;;;;5113994;27;20298;-76
2023/10/16 07:41:18;;;;;;;5.82;2.50;;;8.00;1.00;;;;;;5116774;27;20380;-74
2023/10/16 07:43:46;;;;;;;5.28;2.20;;;8.00;1.00;;;;;;5122610;27;20286;-75
2023/10/16 07:46:19;;;;;;;6.97;2.70;;;8.10;1.00;;;;;;5122690;27;20321;-76
2023/10/16 07:48:50;;;;;;;6.45;2.75;;;8.10;1.00;;;;;;5129283;27;20445;-77
2023/10/16 07:51:19;;;;;;;5.00;3.60;;;8.20;1.00;;;;;;5115592;27;20236;-74
2023/10/16 07:53:49;;;;;;;7.13;2.97;;;8.30;1.00;;;;;;5117647;27;20457;-76
2023/10/16 07:56:28;;;;;;;6.90;2.90;;;8.40;1.00;;;;;;5120207;27;20294;-75
2023/10/16 07:58:56;;;;;;;5.20;2.63;;;8.60;1.00;;;;;;5119606;27;20467;-76
2023/10/16 08:01:42;;;;;;;4.30;2.87;;;8.70;1.00;;;;;;5115916;27;20994;-77
2023/10/16 08:04:27;;;;;;;8.47;2.63;;;8.80;1.00;;;;;;5121061;27;20479;-77
2023/10/16 08:06:57;;;;;;;4.80;3.50;;;9.00;1.00;;;;;;5109135;27;20515;-70
2023/10/16 08:12:19;;;;;;;3.83;2.80;;;9.00;1.00;;;;;;5117578;27;20449;-74
2023/10/16 08:14:47;;;;;;;7.07;4.00;;;9.00;1.00;;;;;;5119210;27;20429;-71
2023/10/16 08:17:17;;;;;;;3.80;3.23;;;9.40;1.00;;;;;;5120861;27;20381;-73
2023/10/16 08:19:45;;;;;;;5.30;4.50;;;9.30;1.00;;;;;;5119525;27;20596;-70
2023/10/16 08:22:13;;;;;;;6.33;3.30;;;9.40;1.00;;;;;;5116628;27;20522;-70
2023/10/16 08:24:57;;;;;;;8.47;3.70;;;9.60;1.00;;;;;;5115985;27;20472;-70
2023/10/16 08:27:43;;;;;;;4.70;3.23;;;9.70;1.00;;;;;;5116837;27;20465;-71
2023/10/16 08:30:19;;;;;;;6.73;2.90;;;9.80;1.00;;;;;;5115026;27;20965;-76
2023/10/16 08:32:53;;;;;;;6.07;3.00;;;10.10;1.00;;;;;;5116340;27;20453;-74
2023/10/16 08:35:21;;;;;;;4.47;2.60;;;10.40;1.00;;;;;;5105690;27;20469;-73
2023/10/16 08:37:56;;;;;;;3.23;2.23;;;11.00;1.00;;;;;;5103094;27;20586;-78
2023/10/16 08:40:32;;;;;;;3.07;2.77;;;11.60;1.00;;;;;;5101689;27;20453;-74
2023/10/16 08:43:01;;;;;;;5.33;3.53;;;13.30;1.00;;;;;;5108646;27;20457;-74
2023/10/16 08:45:29;;;;;;;3.47;1.80;;;14.70;1.00;;;;;;5104667;27;20467;-77
2023/10/16 08:47:59;;;;;;;5.37;2.30;;;15.40;1.00;;;;;;5105317;27;20468;-74
2023/10/16 08:50:40;;;;;;;6.40;2.80;;;15.40;1.00;;;;;;5103032;27;20542;-73
2023/10/16 08:53:30;;;;;;;4.47;2.93;;;15.30;1.00;;;;;;5085471;27;20963;-73
2023/10/16 08:55:59;;;;;;;3.90;2.37;;;15.70;1.00;;;;;;5107546;27;20468;-72
2023/10/16 08:58:27;;;;;;;3.20;2.17;;;15.20;1.00;;;;;;5102299;27;20520;-75
2023/10/16 09:00:57;;;;;;;4.40;2.57;;;15.10;1.00;;;;;;5103998;27;20471;-73
2023/10/16 09:03:24;;;;;;;5.33;2.83;;;14.80;1.00;;;;;;5105595;27;20461;-73
2023/10/16 09:05:52;;;;;;;3.50;2.33;;;14.70;1.00;;;;;;5107667;27;20504;-73
2023/10/16 09:08:19;;;;;;;5.43;3.10;;;14.30;1.00;;;;;;5103877;27;20512;-78
2023/10/16 09:10:48;;;;;;;4.27;2.10;;;14.30;1.00;;;;;;5105881;27;20917;-72
2023/10/16 09:13:17;;;;;;;4.80;2.10;;;13.90;1.00;;;;;;5105131;27;20475;-73
2023/10/16 09:15:48;;;;;;;5.63;2.37;;;13.60;1.00;;;;;;5089765;27;20444;-74
2023/10/16 09:18:21;;;;;;;5.07;2.30;;;13.40;1.00;;;;;;5102841;27;20556;-77
2023/10/16 09:20:49;;;;;;;4.20;2.13;;;13.20;1.00;;;;;;5104747;27;20529;-78
2023/10/16 09:23:23;;;;;;;4.50;3.13;;;13.20;1.00;;;;;;5104325;27;20512;-75
2023/10/16 09:25:55;;;;;;;4.57;2.60;;;13.20;1.00;;;;;;5099808;27;20986;-77
2023/10/16 09:28:25;;;;;;;5.47;2.60;;;13.00;1.00;;;;;;5107052;27;20466;-72
2023/10/16 09:30:54;;;;;;;2.80;1.70;;;12.80;1.00;;;;;;5104334;27;20462;-70
2023/10/16 09:33:23;;;;;;;2.77;1.63;;;12.80;1.00;;;;;;5107883;27;20544;-69
2023/10/16 09:35:59;;;;;;;5.17;1.93;;;13.00;1.00;;;;;;5102225;27;20464;-70
2023/10/16 09:38:33;;;;;;;4.67;2.03;;;12.90;1.00;;;;;;5103280;27;20464;-70
2023/10/16 09:43:44;;;;;;;2.70;2.17;;;12.80;1.00;;;;;;5097921;27;20464;-71
2023/10/16 09:46:48;;;;;;;5.70;2.20;;;12.90;1.00;;;;;;5105092;27;20463;-70
2023/10/16 09:49:21;;;;;;;6.07;2.60;;;12.80;1.00;;;;;;5101939;27;20509;-72
2023/10/16 09:51:48;;;;;;;3.73;2.37;;;12.70;1.00;;;;;;5097823;27;21356;-70
2023/10/16 09:54:16;;;;;;;5.93;2.40;;;12.70;1.00;;;;;;5097035;27;20506;-71
2023/10/16 09:56:48;;;;;;;2.10;1.67;;;12.70;1.00;;;;;;5105450;27;20458;-70
2023/10/16 09:59:26;;;;;;;3.20;1.60;;;12.60;1.00;;;;;;5104209;27;20512;-71
2023/10/16 10:01:55;;;;;;;6.07;2.60;;;12.70;1.00;;;;;;5090296;28;21201;-70
2023/10/16 10:04:25;;;;;;;5.17;3.03;;;12.60;1.00;;;;;;5091957;27;20466;-69
2023/10/16 10:06:57;;;;;;;2.60;2.10;;;12.60;1.00;;;;;;5093031;27;20470;-73
2023/10/16 10:09:41;;;;;;;5.20;1.50;;;12.80;1.00;;;;;;5098841;27;20535;-75
2023/10/16 10:12:22;;;;;;;4.60;1.70;;;13.20;1.00;;;;;;5107846;27;20466;-71
2023/10/16 10:15:07;;;;;;;3.60;1.90;;;13.60;1.00;;;;;;5103801;27;20464;-71
2023/10/16 10:17:39;;;;;;;3.63;2.13;;;13.70;1.00;;;;;;5105542;27;20501;-73
2023/10/16 10:20:09;;;;;;;5.33;1.90;;;13.40;1.00;;;;;;5104602;27;20465;-71
2023/10/16 10:22:38;;;;;;;5.97;2.20;;;13.10;1.00;;;;;;5105112;27;20461;-72
2023/10/16 10:25:16;;;;;;;3.57;1.80;;;12.90;1.00;;;;;;5102811;27;20466;-70
2023/10/16 10:27:44;;;;;;;3.37;1.67;;;13.00;1.00;;;;;;5096840;27;20459;-71
2023/10/16 10:30:18;;;;;;;3.70;1.67;;;13.10;1.00;;;;;;5106734;27;20564;-70
2023/10/16 10:32:52;;;;;;;5.50;1.63;;;12.90;1.00;;;;;;5108065;27;20956;-71
2023/10/16 10:35:26;;;;;;;8.40;2.30;;;12.70;1.00;;;;;;5106711;27;20452;-72
2023/10/16 10:38:07;;;;;;;3.53;1.30;;;12.80;1.00;;;;;;5091904;27;20478;-73
2023/10/16 10:40:35;;;;;;;4.20;2.00;;;13.30;1.00;;;;;;5101963;27;20597;-73
2023/10/16 10:43:04;;;;;;;4.10;1.90;;;13.80;1.00;;;;;;5102332;27;20460;-74
2023/10/16 10:45:39;;;;;;;4.20;1.90;;;14.50;1.00;;;;;;5080490;27;20932;-73
2023/10/16 10:48:10;;;;;;;2.40;1.40;;;14.80;1.00;;;;;;5100597;27;20850;-73
2023/10/16 10:50:39;;;;;;;3.17;1.53;;;14.60;1.00;;;;;;5099840;27;20543;-71
2023/10/16 10:53:14;;;;;;;4.50;2.30;;;14.30;1.00;;;;;;5088242;27;20455;-73
2023/10/16 10:55:55;;;;;;;6.90;2.33;;;14.00;1.00;;;;;;5082151;27;20471;-73
2023/10/16 10:58:31;;;;;;;2.90;1.70;;;13.70;1.00;;;;;;5102854;27;20468;-73
2023/10/16 11:01:16;;;;;;;3.63;2.13;;;13.40;1.00;;;;;;5099892;27;20448;-72
2023/10/16 11:03:45;;;;;;;3.00;1.90;;;13.20;1.00;;;;;;5102660;27;20463;-73
2023/10/16 11:06:16;;;;;;;5.33;2.23;;;13.20;1.00;;;;;;5102680;27;20506;-72
2023/10/16 11:08:47;;;;;;;3.77;2.07;;;13.20;1.00;;;;;;5110868;27;20479;-71
2023/10/16 11:11:15;;;;;;;9.97;2.57;;;13.40;1.00;;;;;;5106462;27;20508;-72
2023/10/16 11:13:46;;;;;;;4.13;1.50;;;13.90;1.00;;;;;;5108662;27;20500;-72
2023/10/16 11:16:15;;;;;;;4.33;2.40;;;14.20;1.00;;;;;;5105859;27;21048;-73
2023/10/16 11:18:57;;;;;;;4.03;1.70;;;14.40;1.00;;;;;;5099439;27;20561;-73
2023/10/16 11:21:25;;;;;;;3.63;1.47;;;14.50;1.00;;;;;;5108583;27;20447;-73
2023/10/16 11:23:55;;;;;;;3.90;1.77;;;14.10;1.00;;;;;;5105201;27;20472;-72
2023/10/16 11:26:23;;;;;;;5.43;2.10;;;13.70;1.00;;;;;;5101201;27;20457;-74
2023/10/16 11:28:51;;;;;;;3.73;1.60;;;13.20;1.00;;;;;;5103162;27;20462;-79
2023/10/16 11:31:21;;;;;;;6.33;2.03;;;13.10;1.00;;;;;;5103111;27;20462;-75
2023/10/16 11:34:07;;;;;;;4.33;1.70;;;12.90;1.00;;;;;;5105964;27;20468;-73
2023/10/16 11:36:35;;;;;;;5.40;2.20;;;12.70;1.00;;;;;;5088862;27;20422;-78
2023/10/16 11:39:02;;;;;;;4.27;1.77;;;12.60;1.00;;;;;;5103186;27;21193;-73
2023/10/16 11:41:32;;;;;;;5.40;2.03;;;12.70;1.00;;;;;;5104547;27;20458;-73
2023/10/16 11:44:01;;;;;;;6.17;2.20;;;12.90;1.00;;;;;;5104598;27;20460;-75
2023/10/16 11:46:31;;;;;;;3.77;1.70;;;13.10;1.00;;;;;;5104200;27;20958;-72
2023/10/16 11:49:17;;;;;;;3.73;2.27;;;13.40;1.00;;;;;;5101647;27;20487;-70
2023/10/16 11:51:45;;;;;;;3.47;1.43;;;13.70;1.00;;;;;;5106854;27;20475;-71
2023/10/16 11:54:13;;;;;;;3.93;1.37;;;13.90;1.00;;;;;;5102649;27;20481;-71
2023/10/16 11:56:41;;;;;;;5.47;1.50;;;13.90;1.00;;;;;;5106622;27;20567;-74
2023/10/16 11:59:12;;;;;;;4.00;1.33;;;13.70;1.00;;;;;;5102802;27;20571;-73
2023/10/16 12:01:43;;;;;;;2.27;1.60;;;13.50;1.00;;;;;;5104355;27;20921;-71
2023/10/16 12:04:12;;;;;;;4.10;2.07;;;13.40;1.00;;;;;;5106730;27;20566;-72
2023/10/16 12:06:39;;;;;;;5.77;2.10;;;13.30;1.00;;;;;;5104678;27;20574;-71
2023/10/16 12:09:12;;;;;;;3.53;1.67;;;13.40;1.00;;;;;;5103583;27;20472;-71
2023/10/16 12:11:42;;;;;;;3.67;1.63;;;13.50;1.00;;;;;;5109218;27;20530;-70
2023/10/16 12:14:13;;;;;;;6.13;1.60;;;13.50;1.00;;;;;;5112274;27;20495;-71
2023/10/16 12:16:44;;;;;;;2.83;1.60;;;13.30;1.00;;;;;;5105933;27;20452;-73
2023/10/16 12:19:14;;;;;;;5.20;2.70;;;13.20;1.00;;;;;;5106226;27;21298;-70
2023/10/16 12:21:41;;;;;;;2.50;1.40;;;13.10;1.00;;;;;;5105961;27;20451;-72
2023/10/16 12:24:10;;;;;;;2.20;1.17;;;13.00;1.00;;;;;;5109557;27;20468;-71
2023/10/16 12:26:40;;;;;;;3.63;1.53;;;12.90;1.00;;;;;;5105732;27;20469;-71
2023/10/16 12:29:08;;;;;;;2.50;1.33;;;12.80;1.00;;;;;;5106010;27;20961;-72
2023/10/16 12:31:35;;;;;;;3.40;1.60;;;12.70;1.00;;;;;;5107825;27;20468;-73
2023/10/16 12:34:03;;;;;;;1.93;1.13;;;12.60;1.00;;;;;;5108503;27;20458;-72
2023/10/16 12:36:31;;;;;;;3.90;1.70;;;12.60;1.00;;;;;;5108410;27;20482;-72
2023/10/16 12:38:59;;;;;;;7.90;2.47;;;12.70;1.00;;;;;;5101883;27;20983;-71
2023/10/16 12:41:26;;;;;;;1.90;1.23;;;13.00;1.00;;;;;;5104996;27;20451;-70
2023/10/16 12:43:53;;;;;;;2.70;1.67;;;13.00;1.00;;;;;;5107205;27;20468;-74
2023/10/16 12:46:20;;;;;;;4.60;1.50;;;13.00;1.00;;;;;;5105656;27;20562;-71
2023/10/16 12:48:47;;;;;;;5.23;1.60;;;12.80;1.00;;;;;;5108753;27;20537;-77
2023/10/16 12:51:15;;;;;;;2.73;1.33;;;12.70;1.00;;;;;;5106509;27;20537;-76
2023/10/16 12:53:42;;;;;;;2.23;1.53;;;12.80;1.00;;;;;;5103470;27;21072;-76
2023/10/16 12:56:12;;;;;;;2.90;1.37;;;12.80;1.00;;;;;;5108507;27;20542;-78
2023/10/16 12:58:38;;;;;;;2.07;1.20;;;12.70;1.00;;;;;;5107454;27;20447;-77
2023/10/16 13:01:10;;;;;;;4.93;2.00;;;12.70;1.00;;;;;;5106846;27;20960;-78
2023/10/16 13:03:37;;;;;;;4.47;1.40;;;12.60;1.00;;;;;;5107230;27;21280;-78
2023/10/16 13:06:05;;;;;;;3.40;1.33;;;12.60;1.00;;;;;;5108289;27;20549;-77
2023/10/16 13:08:35;;;;;;;4.80;2.00;;;12.60;1.00;;;;;;5109991;27;20584;-78
2023/10/16 13:11:02;;;;;;;4.60;2.40;;;12.60;1.00;;;;;;5104317;27;20995;-77
2023/10/16 13:13:29;;;;;;;5.40;2.70;;;12.60;1.00;;;;;;5111534;27;21052;-80
2023/10/16 13:15:58;;;;;;;2.20;1.90;;;12.60;1.00;;;;;;5108273;27;20512;-78
2023/10/16 13:18:31;;;;;;;4.60;1.63;;;12.60;1.00;;;;;;5109523;27;20472;-78
2023/10/16 13:21:06;;;;;;;5.33;2.23;;;12.70;1.00;;;;;;5106094;27;20952;-77
2023/10/16 13:23:38;;;;;;;5.60;3.10;;;12.80;1.00;;;;;;5108628;27;20466;-75
2023/10/16 13:26:08;;;;;;;1.70;1.50;;;12.80;1.00;;;;;;5110671;27;20984;-75
2023/10/16 13:28:38;;;;;;;8.10;1.97;;;12.90;1.00;;;;;;5107928;27;21129;-77
2023/10/16 13:31:05;;;;;;;5.30;2.17;;;12.90;1.00;;;;;;5109362;27;20985;-79
2023/10/16 13:33:33;;;;;;;6.20;2.37;;;13.00;1.00;;;;;;5102623;27;20919;-76
2023/10/16 13:36:00;;;;;;;3.83;2.13;;;13.00;1.00;;;;;;5104644;27;20455;-78
2023/10/16 13:38:28;;;;;;;3.07;1.80;;;13.10;1.00;;;;;;5103920;27;20509;-77
2023/10/16 13:40:56;;;;;;;4.40;1.87;;;13.20;1.00;;;;;;5105027;27;20451;-76
2023/10/16 13:43:23;;;;;;;3.20;1.47;;;13.30;1.00;;;;;;5103143;27;20501;-77
2023/10/16 13:45:52;;;;;;;3.43;1.97;;;13.30;1.00;;;;;;5105270;27;20970;-76
2023/10/16 13:48:21;;;;;;;3.43;1.70;;;13.10;1.00;;;;;;5108384;27;21018;-74
2023/10/16 13:50:48;;;;;;;6.10;2.30;;;13.10;1.00;;;;;;5103993;27;21867;-78
2023/10/16 13:53:15;;;;;;;3.00;1.50;;;13.00;1.00;;;;;;5108064;27;20984;-77
2023/10/16 13:55:52;;;;;;;2.37;1.60;;;12.90;1.00;;;;;;5090867;28;20455;-76
2023/10/16 13:58:21;;;;;;;4.20;2.00;;;12.70;1.00;;;;;;5106000;27;20560;-74
2023/10/16 14:00:49;;;;;;;3.00;1.97;;;12.60;1.00;;;;;;5107159;27;20458;-72
2023/10/16 14:03:18;;;;;;;3.30;2.10;;;12.60;1.00;;;;;;5106349;27;20542;-73
2023/10/16 14:05:47;;;;;;;3.80;1.87;;;12.50;1.00;;;;;;5112196;27;21159;-72
2023/10/16 14:08:15;;;;;;;3.30;1.20;;;12.50;1.00;;;;;;5105158;27;20471;-73
2023/10/16 14:10:49;;;;;;;3.43;2.50;;;12.60;1.00;;;;;;5103188;27;20434;-70
2023/10/16 14:13:20;;;;;;;7.13;1.57;;;12.60;1.00;;;;;;5107048;27;20454;-71
2023/10/16 14:15:49;;;;;;;2.13;1.17;;;12.60;1.00;;;;;;5103067;27;20449;-70
2023/10/16 14:18:20;;;;;;;2.57;1.50;;;12.60;1.00;;;;;;5106602;27;20542;-71
2023/10/16 14:20:49;;;;;;;2.43;1.37;;;12.70;1.00;;;;;;5107092;27;20454;-71
2023/10/16 14:23:18;;;;;;;4.63;1.70;;;12.70;1.00;;;;;;5105301;27;20463;-72
2023/10/16 14:25:48;;;;;;;3.53;2.13;;;12.70;1.00;;;;;;5105477;27;20537;-74
2023/10/16 14:28:32;;;;;;;2.63;1.43;;;12.80;1.00;;;;;;5102556;27;20454;-72
2023/10/16 14:31:01;;;;;;;3.10;2.00;;;12.70;1.00;;;;;;5102946;27;20545;-71
2023/10/16 14:33:30;;;;;;;4.93;1.90;;;12.60;1.00;;;;;;5106906;27;20561;-73
2023/10/16 14:35:58;;;;;;;4.50;2.50;;;12.60;1.00;;;;;;5102351;27;20959;-72
2023/10/16 14:38:28;;;;;;;2.07;1.80;;;12.60;1.00;;;;;;5104152;27;20994;-72
2023/10/16 14:41:02;;;;;;;3.43;2.30;;;12.50;1.00;;;;;;5108145;27;20466;-76
2023/10/16 14:43:29;;;;;;;5.90;1.80;;;12.40;1.00;;;;;;5106326;27;20548;-74
2023/10/16 14:46:00;;;;;;;3.80;2.80;;;12.40;1.00;;;;;;5101956;27;20505;-72
2023/10/16 14:48:29;;;;;;;3.23;1.60;;;12.50;1.00;;;;;;5109601;27;21343;-72
2023/10/16 14:50:56;;;;;;;2.00;1.30;;;12.50;1.00;;;;;;5107778;27;20447;-73
2023/10/16 14:53:25;;;;;;;2.20;1.63;;;12.40;1.00;;;;;;5106513;27;20467;-73
2023/10/16 14:55:52;;;;;;;8.60;2.57;;;12.40;1.00;;;;;;5106869;27;20472;-73
2023/10/16 14:58:19;;;;;;;2.50;1.17;;;12.40;1.00;;;;;;5104090;27;20438;-72
2023/10/16 15:00:50;;;;;;;2.50;1.20;;;12.40;1.00;;;;;;5104574;27;20474;-73